Timeline UpdatesTrip UpdatesNews PostsPvt Posts♥♥Travel TipsAdmin PostsConv PostsFollowed PostsChat RequestsBlog PostsPNR Posts

Disclaimer
Search
 
 
Sun Oct 26, 2014 08:28:10 ISTHomeTrainsΣChainsAtlasPNRForumGalleryNewsFAQTripsMembersLoginFeedback
No Recent News for this Train
Other Trains in the News **new
Latest...
2S avbl b/w mumbai & surat .
Tue Feb 04, 2014 (12:55AM)
⇐ Return Journey: Train# 19024

19023/Mumbai Firozpur Janta Express

Time-Table HAS CHANGED.
Sep 02 2014 (12:00AM)
Change Departure Station:
Change Arrival Station:
Post a Train Travel TipPost a Train Travel Tip **new
Post a Comment/Question/Picture/VideoPost a Comment/Question/Picture/Video
Inaugural Run
Mon Oct 01, 1956
Pantry/Catering
✕ NO Pantry Car
✓ Catering Avbl
Catering from local vendors
RSA - Rake Sharing
No RSA. Independent Rake.
Rake/Coach Composition
LOCO, HCPV, SLR, GS, S-8, S-7, S-6, S-5, S-4, S-3, S-2, S-1, GS, GS(MST), GS, SLR Author: Manish Kr Singh Entry: 640399
Loco
BCT NDLS = GZB WAP#5, NDLS-FZR TKD WDP-4/4B
News    PNR    Forum    Time-Table    Availability    Fare Chart    Map    Arr/Dep History    Trips    Gallery    ΣChains    X/O    Timeline    
Travel Time: 31h 11m    67 halts    Distance: 1425 km    Avg Speed: 45 km/hr
Type: Mail/Express
Zone: WR/Western
Departs @ 15:09 (Avg 23m late)
Platform# ???
SMTWTFS
Palej/PLJ 
Arrives @ 22:20 +1 night (Avg 1m early)
Platform# 1
SMTWTFS
Firozpur Cantt. Junction/FZR 

67 halts. 212 intermediate Stations between Palej and Firozpur Cantt. Junction

Show ALL intermediate Stations  Show Old Time-Table

#TrkCodeStation NameX/OArrivesAvgDepartsAvgHaltPFDay#KmSpeedElevZoneAddress
1/==/BCTMumbai Central (9)  -07:25+041-347.8403mWRMumbai 400008, Maharashtra
2/==/DDRMumbai Dadar Western (6)  07:34+507:37+53m31-341.9536mWRMumbai, Maharashtra
3/==/BVIMumbai Borivali (8)  08:04+708:07+73m41-318.15119mWRMumbai - 400092, Maharashtra
4/==/PLGPalghar (3)O  09:14+909:16+122m11-261.14219mWRPalghar, Maharashtra
5/==/BORBoisar (3)X  09:32+609:34+82m21-249.93317mWRBoisar Tel.no-02525-266626, Maharashtra
6/==/VGNVangaon (3)XO  09:51+209:52+51m11-240.55311mWRDist. Palghar, Maharashtra
7/==/DRDDahanu Road (5)X  10:06+310:08+42m11-228.27612mWRDahanu, Maharashtra
8/==/UBRUmbargam Road (3)XO  10:24+510:26+52m11-207.93630mWRUmbergaon, Gujarat
9/==/SJNSanjan (3)X  10:34 10:35+410:36 10:37+62m11-202.56922mWRSanjan, Gujarat
10/==/BLDBhilad (3)  10:46 10:47+510:48 10:49+62m21-190.96233mWRBhilad, Gujarat
11/==/VAPIVapi (3)X  11:00+611:02+82m11-179.64827mWRVapi, Gujarat
12/==/UVDUdvada (3)X  11:14+611:16+62m--1-170.16018mWRUdvada, Gujarat
13/==/PADPardi (3)X  11:22+611:24+62m--1-164.14919mWRValsad, Gujarat
14/==/BLValsad (3)X  11:42 11:37+411:47 11:42+85m21-153.47215mWRValsad, Gujarat
15/==/BIMBilimora Junction (4)X  11:59 11:57+912:01 12:02+62 5m11-135.53711mWRBilimora, Gujarat
16/==/AMLAmalsad (3)  12:10 12:11+512:12 12:13+52m11-129.910412mWRAmalsad, Gujarat
17/==/NVSNavsari (3)X  12:22+1012:27+105m11-114.34614mWRNavsari, Gujarat
18/==/MRLMaroli (3)X  12:38+812:40+82m11-105.92715mWRMaroli, Gujarat
19/==/STSurat (4)X  13:27+013:37+210m11-84.77919mWRSurat 395001, Gujarat
20/==/KIMKim (2)X  13:55+2113:57+212m11-61.15818mWRNH 8, Gujarat
21/==/KSBKosamba Junction (3)  14:05+2314:07+222m11-53.37130mWRKosamba, Gujarat
22/==/PAOPanoli (3)  14:14+2314:16+232m11-45.17729mWRPanoli, Gujarat
23/==/AKVAnkleshwar Junction (4)  14:24+2414:26+242m11-34.83719mWRAnkleshwar, Gujarat
24/==/BHBharuch Junction (5)  14:41+2114:46+205m31-25.48019mWRBharuch, Gujarat
25/==/NIUNabipur (3)14:55+2414:57+242m--1-13.48024mWRNabipur, Gujarat
26/==/PLJPalej (4)»X  15:07+2415:09+232m--10.08329mWRPalej, Gujarat
27/==/MYGMiyagam Karjan (2)X  15:20+2515:22+242m2115.35429mWRKarjan, Gujarat
28/==/BRCVadodara Junction (7)  15:55+2616:05+2410m6145.17336mWRVadodara 390005, Gujarat
29/==/SMLASamlaya Junction (3)  16:27+5616:29+562m--171.77567mWRVadodara, Gujarat
30/==/DRLDerolX  16:48+4116:50+412m--195.44381mWRKalol, Gujarat
31/==/GDAGodhra Junction (3)  17:23+1917:28+195m21119.058122mWRGodhra, Gujarat
32/==/SATSant Road (2)X  17:47 17:49+3317:49 17:51+322m--1139.471169mWROrwara, Gujarat
33/==/PPDPiplod Junction  17:59 18:01+3518:01 18:02+362 1m--1151.268209mWRPiplod, Gujarat
34/==/LMKLimkheda  18:07 18:09+3818:09 18:10+382 1m--1159.173205mWRLimkheda, Gujarat
35/==/DHDDahod (3)  18:37+4018:42+405m--1192.190313mWRDahod, Gujarat
36/==/MGNMeghnagar (3)X  19:02 19:04+4519:04 19:06+452m--1225.260317mWRJhabua, Madhya Pradesh
37/==/THDRThandla Road (2)X  19:12 19:14+4519:14 19:15+452 1m--1233.269317mWRJhabua, Madhya Pradesh
38/==/BMIBamnia (2)X  19:37 19:39+4719:39 19:41+462m--1260.850392mWRBamnia, Madhya Pradesh
39/==/RTMRatlam Junction (7)X  20:35+3220:55+3020m51305.566495mWRRatlam, Madhya Pradesh
40/==/KUHKhachrod (2)X  21:17 21:20+3621:19 21:22+352m--1333.122497mWRUjjain, Madhya Pradesh
41/==/NADNagda Junction (4)X  22:00+1222:05+135m--1346.968468mWRNagda, Madhya Pradesh
42/==/MEPMahidpur Road  22:20+2322:22+222m--1364.090493mWCRGogapur, Madhya Pradesh
43/==/VMAVikramgarh Alot (2)X  22:38+2322:40+232m21387.982443mWCRKota Division, Madhya Pradesh
44/==/CMUChau Mahla (3)  22:56+2522:58+262m21409.766426mWCRJhalawar, Rajasthan
45/==/SVASuwasra (2)  23:12+2523:14+262m--1425.158450mWCRSuwasra, Madhya Pradesh
46/==/SGZShamgarh (3)  23:28+2323:30+242m--1438.569463mWCRMandsaur, Madhya Pradesh
47/==/BWMBhawani Mandi (3)  23:59+1900:01+222m--1472.071384mWCRBhawani Mandi, Madhya Pradesh
48/==/JHWJhalawar Road (3)X  00:15+2200:17+232m--2488.553361mWCRJhalawar City, Rajasthan
49/==/RMARamganj Mandi Junction (3)X  00:31+1700:33+202m--2500.982358mWCRRamganj Mandi, Rajasthan
50/==/KOTAKota Junction (5)X  01:25+3001:35+3410m12572.171256mWCRKota, Rajasthan
51/==/LKELakheri (3)X  02:26+3002:28+312m--2632.755228mWCRBundi, Rajasthan
52/==/IDGIndargarh Sumerganj Mandi (2)X  02:40+3102:42+332m--2643.766247mWCRIndargarh, Rajasthan
53/==/SWMSawai Madhopur Junction (4)X  03:15+3203:20+325m--2679.972266mWCRSawai Madhopur, Rajasthan
54/==/MLZMalarna  03:45+3203:47+342m--2710.144236mWCRSawai Madhopur, Rajasthan
55/==/NNWNarayanpur Tatwara (2)XO  04:10+2804:12+1:012m--2726.912256mWCRSawai Madhopur, Rajasthan
56/==/GGCGangapur City (3)O  05:40+705:45+185m12743.960270mWCRGangapur, Rajasthan
57/==/SMBJShri Mahabirji (3)  06:19+1606:20+181m--2777.947240mWCRKarauli, Rajasthan
58/==/HANHindaun City (2)  06:33+1606:35+222m--2788.179230mWCRKarauli, Rajasthan
59/==/FSPFateh Singhpura  06:45+2506:47+252m--2801.366223mWCRState Highway 1, Rajasthan
60/==/BXNBayana Junction (3)  07:05+2607:10+295m--2821.050198mWCRBayana, Rajasthan
61/==/BTEBharatpur Junction (5)X  08:00+1408:05+315m--2863.024174mWCRBharatpur, Rajasthan
62/==/MTJMathura Junction (10)  09:35 09:30+109:45 09:35+810 5m42896.569179mNCRMathura, Uttar Pradesh
63/==/CHJChata (4)X  10:07 10:02+810:09 10:04+92m--2927.751 NCRChhata, Uttar Pradesh
64/==/KSVKosi Kalan (3)X  10:20 10:16+810:22 10:18+92m12938.054189mNCRKosi Kalan, Uttar Pradesh
65/==/PWLPalwal (8)X  11:08 11:05-211:10 11:07+22m--2980.479200mNRPalwal, Haryana
66/==/BVHBallabgarh (5)X  11:28 11:23+911:30 11:25+102m--21001.640203mNRFaridabad, Haryana
67/==/FDBFaridabad (4)X  11:41 11:37+1111:43 11:39+112m221009.755206mNRold Faridabad, Haryana
68/==/TKDTuglakabad (2)  11:55 11:51+1411:57 11:53+152m--21020.828213mNRNear Tughlakabad Metro Station, Delhi NCT
69/==/OKAOkhla (4)X  12:06+1312:08 12:07+132 1m--21026.828221mNRIshwar Nagar Mathura Road, Delhi NCT
70/==/NZMDelhi Hazrat Nizamuddin (7)O  12:18 12:15+1212:20 12:17+122m321030.516209mNRNew Delhi 110013, Delhi NCT
71/==/NDLSNew Delhi (16)XO  12:45+1113:15+930m121037.814215mNRNew Delhi, Delhi NCT
72/==/DKZDelhi KishanGanj (2)  13:32+1913:34+192m--21041.730220mNRSarai Rohilla, Delhi NCT
73/==/SSBShakur Basti  13:49 13:48+1813:51 13:50+222m--21048.745216mNRPitampura, Delhi NCT
74/==/NNONangloi  14:00+2614:02+282m--21056.258219mNRJJ Colony No 1, Delhi NCT
75/==/BGZBahadurgarh  14:14 14:15+2314:16 14:17+232m--21068.767220mNRBahadurgarh, Haryana
76/==/SPZSampla  14:43 14:33+3614:45 14:35+372m--21086.634222mNRSampla, Haryana
77/==/ROKRohtak Junction (3)  15:10 15:15+1515:15 15:20+135m--21108.982220mNRRohtak, Haryana
78|==|JNAJulana  15:41 15:43+2215:43 15:45+222m--21140.351226mNRJulana, Haryana
79|==|JINDJind Junction (3)  16:15+1616:20+155m--21166.075222mNRJind 126102, Haryana
80|==|UCAUchana  16:35+2416:37+252m--21184.765225mNRDistrict Jind, Haryana
81|==|NRWNarwana Junction (4)  16:51+2416:53+242m--21199.973235mNRWay to Narwana, Haryana
82|==|TUNTohana (2)  17:14+2317:15+231m--21225.437232mNRTohana, Haryana
83|-=|JHLJakhal Junction  17:35+1917:40+185m--21237.678225mNRJakhal, Haryana
84!==!BRZBareta  17:51+2017:53+202m--21251.871223mNRBareta, Punjab
85!==!BLZBudhlada  18:06+2418:08+242m--21267.264223mNRBudhlada, Punjab
86!==!MSZMansaX  18:23+1818:25+182m--21283.337222mNRMansa, Punjab
87!==!KTKLKotli Kalan  18:39-18:41-2m--21291.9101219mNRState Highway 12A, Punjab
88!==!MAURMaur  18:47+2118:49+212m--21302.035220mNRMaur Mandi, Punjab
89!==!BTIBathinda Junction (6)  19:50+220:00+310m121337.567208mNRBathinda, Punjab
90|--|GNAGoneana Bhai Jagta (3)  20:11+1120:13+112m121349.857206mNRGoniana, Punjab
91|--|GJUTGangsar Jaitu (3)  20:28+1220:30+142m121364.049207mNRJaitu, Punjab
92|--|KKPKot Kapura Junction (3)  20:50+1420:52+142m121380.3590mNRKotkapura, Punjab
93|--|FDKFaridkot (3)  21:05+1421:07+142m121393.027202mNRFaridkot, Punjab
94|--|FZRFirozpur Cantt. Junction (5)•  22:20-1-121425.3-200mNRFirozpur Cantt 152001, Punjab
Scroll to Top
Scroll to Bottom